createdAt,value
2019-05-11T00:01:57.003Z,7.52
2019-05-11T00:04:25.662Z,7.44
2019-05-11T00:06:54.316Z,7.49
2019-05-11T00:09:23.074Z,7.69
2019-05-11T00:11:51.732Z,7.81
2019-05-11T00:14:20.411Z,7.84
2019-05-11T00:16:49.072Z,7.78
2019-05-11T00:19:17.763Z,7.80
2019-05-11T00:21:46.416Z,7.82
2019-05-11T00:24:15.082Z,7.83
2019-05-11T00:26:43.761Z,7.83
2019-05-11T00:29:12.426Z,7.77
2019-05-11T00:31:41.121Z,7.78
2019-05-11T00:34:09.817Z,7.74
2019-05-11T00:36:38.493Z,7.69
2019-05-11T00:39:08.256Z,7.72
2019-05-11T00:41:37.008Z,7.61
2019-05-11T00:44:05.747Z,7.71
2019-05-11T00:46:34.413Z,7.66
2019-05-11T00:49:03.178Z,7.45
2019-05-11T00:51:31.907Z,7.36
2019-05-11T00:54:00.572Z,7.52
2019-05-11T00:56:29.283Z,7.61
2019-05-11T00:58:57.953Z,7.58
2019-05-11T01:01:26.607Z,7.53
2019-05-11T01:07:24.386Z,7.57
2019-05-11T01:09:53.079Z,7.53
2019-05-11T01:12:21.747Z,7.36
2019-05-11T01:18:18.291Z,7.41
2019-05-11T01:20:46.945Z,7.28
2019-05-11T01:23:15.646Z,7.35
2019-05-11T01:25:44.358Z,7.33
2019-05-11T01:28:13.039Z,7.28
2019-05-11T01:30:42.092Z,7.51
2019-05-11T01:33:10.791Z,7.63
2019-05-11T01:35:39.483Z,7.72
2019-05-11T01:38:08.167Z,7.72
2019-05-11T01:40:36.820Z,7.55
2019-05-11T01:43:05.534Z,7.56
2019-05-11T01:45:34.239Z,7.56
2019-05-11T01:48:02.909Z,7.61
2019-05-11T01:50:31.671Z,7.60
2019-05-11T01:53:00.338Z,7.48
2019-05-11T01:55:29.035Z,7.54
2019-05-11T01:57:57.731Z,7.59
2019-05-11T02:00:26.393Z,7.69
2019-05-11T02:02:55.085Z,7.70
2019-05-11T02:05:30.603Z,7.64
2019-05-11T02:08:00.590Z,7.62
2019-05-11T02:10:30.127Z,7.66
2019-05-11T02:12:58.931Z,7.60
2019-05-11T02:15:27.704Z,7.51
2019-05-11T02:17:56.365Z,7.47
2019-05-11T02:20:25.060Z,7.52
2019-05-11T02:22:53.724Z,7.63
2019-05-11T02:25:22.479Z,7.64
2019-05-11T02:27:51.170Z,7.64
2019-05-11T02:30:20.203Z,7.63
2019-05-11T02:32:49.018Z,7.66
2019-05-11T02:35:17.725Z,7.63
2019-05-11T02:37:46.387Z,7.63
2019-05-11T02:40:15.450Z,7.46
2019-05-11T02:42:44.111Z,7.29
2019-05-11T02:45:13.136Z,7.19
2019-05-11T02:47:41.907Z,7.13
2019-05-11T02:50:10.854Z,7.49
2019-05-11T02:52:39.669Z,7.63
2019-05-11T02:55:08.531Z,7.60
2019-05-11T02:57:37.212Z,7.56
2019-05-11T03:00:08.046Z,7.66
2019-05-11T03:02:36.743Z,7.69
2019-05-11T03:05:06.860Z,7.71
2019-05-11T03:07:35.541Z,7.71
2019-05-11T03:10:04.431Z,7.74
2019-05-11T03:12:33.100Z,7.72
2019-05-11T03:15:01.803Z,7.70
2019-05-11T03:17:33.363Z,7.65
2019-05-11T03:20:02.085Z,7.62
2019-05-11T03:22:30.716Z,7.58
2019-05-11T03:24:59.417Z,7.54
2019-05-11T03:27:28.107Z,7.54
2019-05-11T03:30:00.769Z,7.53
2019-05-11T03:32:27.228Z,7.58
2019-05-11T03:34:56.910Z,7.69
2019-05-11T03:37:25.597Z,7.81
2019-05-11T03:39:54.298Z,7.68
2019-05-11T03:42:22.974Z,7.68
2019-05-11T03:44:51.639Z,7.65
2019-05-11T03:47:20.411Z,7.59
2019-05-11T03:49:49.182Z,7.72
2019-05-11T03:52:18.169Z,7.65
2019-05-11T03:54:46.868Z,7.66
2019-05-11T03:57:15.554Z,7.69
2019-05-11T03:59:44.239Z,7.68
2019-05-11T04:02:12.935Z,7.59
2019-05-11T04:04:41.706Z,7.59
2019-05-11T04:07:10.453Z,7.66
2019-05-11T04:09:39.140Z,7.65
2019-05-11T04:12:07.833Z,7.75
2019-05-11T04:14:36.484Z,7.82
2019-05-11T04:17:05.157Z,7.92
2019-05-11T04:19:33.840Z,8.02
2019-05-11T04:22:02.524Z,8.06
2019-05-11T04:24:31.186Z,8.15
2019-05-11T04:26:59.880Z,8.16
2019-05-11T04:29:28.592Z,8.12
2019-05-11T04:31:57.258Z,8.23
2019-05-11T04:34:25.932Z,8.24
2019-05-11T04:36:54.598Z,8.27
2019-05-11T04:39:23.397Z,8.30
2019-05-11T04:41:52.061Z,8.37
2019-05-11T04:44:20.729Z,8.59
2019-05-11T04:46:49.412Z,8.67
2019-05-11T04:49:18.078Z,8.72
2019-05-11T04:51:46.766Z,8.58
2019-05-11T04:54:15.462Z,8.74
2019-05-11T04:56:44.157Z,8.90
2019-05-11T04:59:12.861Z,9.02
2019-05-11T05:01:41.520Z,9.12
2019-05-11T05:04:14.387Z,9.19
2019-05-11T05:06:40.636Z,9.22
2019-05-11T05:09:09.292Z,9.22
2019-05-11T05:11:38.490Z,9.39
2019-05-11T05:14:10.157Z,9.33
2019-05-11T05:16:37.671Z,9.54
2019-05-11T05:19:06.402Z,9.65
2019-05-11T05:21:35.085Z,9.75
2019-05-11T05:24:03.816Z,9.75
2019-05-11T05:26:32.494Z,9.60
2019-05-11T05:29:01.205Z,9.95
2019-05-11T05:31:29.874Z,10.19
2019-05-11T05:34:01.323Z,10.29
2019-05-11T05:36:29.000Z,10.36
2019-05-11T05:38:57.663Z,10.21
2019-05-11T05:41:26.349Z,10.10
2019-05-11T05:43:55.008Z,10.12
2019-05-11T05:46:23.696Z,10.30
2019-05-11T05:48:52.390Z,10.56
2019-05-11T05:51:21.047Z,10.82
2019-05-11T05:53:49.735Z,11.28
2019-05-11T05:56:18.423Z,11.53
2019-05-11T05:58:47.109Z,11.63
2019-05-11T06:01:15.789Z,11.67
2019-05-11T06:03:44.486Z,11.96
2019-05-11T06:06:13.161Z,11.84
2019-05-11T06:08:43.270Z,12.13
2019-05-11T06:11:12.081Z,11.97
2019-05-11T06:13:45.215Z,12.20
2019-05-11T06:16:11.164Z,12.30
2019-05-11T06:18:39.828Z,12.39
2019-05-11T06:21:08.553Z,12.06
2019-05-11T06:23:37.171Z,11.72
2019-05-11T06:26:05.833Z,11.74
2019-05-11T06:28:34.519Z,12.02
2019-05-11T06:31:03.568Z,12.06
2019-05-11T06:33:32.322Z,12.18
2019-05-11T06:36:00.979Z,12.44
2019-05-11T06:38:29.660Z,12.58
2019-05-11T06:40:58.392Z,12.44
2019-05-11T06:43:27.085Z,12.46
2019-05-11T06:45:55.757Z,12.28
2019-05-11T06:48:24.458Z,12.68
2019-05-11T06:50:53.105Z,12.72
2019-05-11T06:53:21.772Z,13.06
2019-05-11T06:55:50.478Z,13.37
2019-05-11T06:58:19.184Z,13.67
2019-05-11T07:00:47.922Z,13.84
2019-05-11T07:03:16.663Z,14.13
2019-05-11T07:05:45.293Z,13.94
2019-05-11T07:08:13.968Z,13.92
2019-05-11T07:10:42.669Z,13.92
2019-05-11T07:13:11.380Z,13.91
2019-05-11T07:15:40.348Z,14.09
2019-05-11T07:18:09.015Z,14.03
2019-05-11T07:20:50.108Z,13.86
2019-05-11T07:23:08.102Z,13.95
2019-05-11T07:25:36.786Z,14.00
2019-05-11T07:28:05.485Z,14.32
2019-05-11T07:30:34.242Z,14.33
2019-05-11T07:33:02.924Z,14.08
2019-05-11T07:35:31.657Z,13.77
2019-05-11T07:38:00.623Z,13.98
2019-05-11T07:40:29.292Z,14.02
2019-05-11T07:42:58.934Z,13.71
2019-05-11T07:45:28.427Z,13.29
2019-05-11T07:47:58.994Z,12.69
2019-05-11T07:50:28.505Z,12.25
2019-05-11T07:52:58.852Z,12.33
2019-05-11T07:55:28.307Z,12.27
2019-05-11T07:57:58.621Z,12.36
2019-05-11T08:00:28.172Z,12.20
2019-05-11T08:02:58.508Z,12.41
2019-05-11T08:05:28.387Z,12.42
2019-05-11T08:07:59.561Z,12.72
2019-05-11T08:10:28.365Z,12.91
2019-05-11T08:12:58.841Z,12.95
2019-05-11T08:15:28.389Z,12.80
2019-05-11T08:17:57.977Z,12.59
2019-05-11T08:20:28.063Z,12.64
2019-05-11T08:23:00.582Z,12.67
2019-05-11T08:25:29.257Z,12.86
2019-05-11T08:27:58.846Z,13.22
2019-05-11T08:30:28.003Z,13.32
2019-05-11T08:32:58.224Z,13.49
2019-05-11T08:35:30.873Z,13.10
2019-05-11T08:37:58.465Z,12.89
2019-05-11T08:40:28.850Z,12.37
2019-05-11T08:42:58.413Z,12.21
2019-05-11T08:45:28.022Z,12.29
2019-05-11T08:47:57.998Z,12.31
2019-05-11T08:50:27.976Z,12.30
2019-05-11T08:52:58.075Z,11.89
2019-05-11T08:55:28.947Z,11.82
2019-05-11T08:57:58.566Z,11.92
2019-05-11T09:00:28.410Z,12.23
2019-05-11T09:02:58.274Z,12.20
2019-05-11T09:05:28.076Z,12.09
2019-05-11T09:07:57.780Z,11.93
2019-05-11T09:10:28.141Z,11.67
2019-05-11T09:12:59.037Z,11.84
2019-05-11T09:15:36.402Z,12.18
2019-05-11T09:17:57.946Z,12.03
2019-05-11T09:20:28.550Z,12.43
2019-05-11T09:22:58.890Z,12.48
2019-05-11T09:25:27.868Z,12.65
2019-05-11T09:27:58.730Z,12.65
2019-05-11T09:30:28.781Z,12.85
2019-05-11T09:32:58.100Z,12.82
2019-05-11T09:35:29.198Z,12.70
2019-05-11T09:37:58.744Z,12.51
2019-05-11T09:40:28.371Z,11.90
2019-05-11T09:42:58.526Z,12.00
2019-05-11T09:45:27.860Z,12.05
2019-05-11T09:47:58.217Z,12.07
2019-05-11T09:50:28.377Z,12.20
2019-05-11T09:52:58.079Z,12.70
2019-05-11T09:55:28.261Z,13.22
2019-05-11T09:57:57.981Z,13.36
2019-05-11T10:00:28.306Z,13.79
2019-05-11T10:02:57.755Z,13.95
2019-05-11T10:05:28.614Z,14.18
2019-05-11T10:07:58.906Z,14.34
2019-05-11T10:10:28.932Z,14.40
2019-05-11T10:12:59.037Z,14.46
2019-05-11T10:15:28.122Z,14.54
2019-05-11T10:17:58.815Z,14.25
2019-05-11T10:20:29.367Z,14.29
2019-05-11T10:22:58.364Z,14.29
2019-05-11T10:25:28.669Z,15.36
2019-05-11T10:27:58.060Z,16.14
2019-05-11T10:30:28.033Z,15.70
2019-05-11T10:32:57.882Z,15.06
2019-05-11T10:35:28.857Z,15.64
2019-05-11T10:37:58.311Z,15.45
2019-05-11T10:40:28.105Z,14.42
2019-05-11T10:42:58.994Z,13.75
2019-05-11T10:45:28.509Z,13.35
2019-05-11T10:48:00.825Z,13.24
2019-05-11T10:50:28.777Z,12.98
2019-05-11T10:52:59.044Z,13.09
2019-05-11T10:55:28.100Z,12.95
2019-05-11T10:57:58.067Z,13.11
2019-05-11T11:00:28.319Z,13.03
2019-05-11T11:02:58.129Z,13.18
2019-05-11T11:05:27.921Z,12.93
2019-05-11T11:07:58.811Z,12.66
2019-05-11T11:10:28.659Z,12.38
2019-05-11T11:12:57.889Z,12.30
2019-05-11T11:15:28.860Z,12.34
2019-05-11T11:17:57.985Z,12.11
2019-05-11T11:20:28.051Z,11.72
2019-05-11T11:22:58.285Z,11.38
2019-05-11T11:25:28.353Z,11.29
2019-05-11T11:27:57.954Z,11.14
2019-05-11T11:30:28.553Z,10.99
2019-05-11T11:32:58.775Z,11.27
2019-05-11T11:35:27.967Z,11.10
2019-05-11T11:37:58.457Z,10.71
2019-05-11T11:40:28.193Z,10.61
2019-05-11T11:42:58.114Z,10.44
2019-05-11T11:45:28.766Z,10.49
2019-05-11T11:47:58.122Z,10.47
2019-05-11T11:50:28.325Z,10.65
2019-05-11T11:52:57.854Z,10.92
2019-05-11T11:55:28.810Z,11.17
2019-05-11T11:57:58.880Z,11.09
2019-05-11T12:00:28.815Z,11.06
2019-05-11T12:02:58.110Z,10.99
2019-05-11T12:05:28.304Z,11.08
2019-05-11T12:07:58.015Z,10.99
2019-05-11T12:10:28.697Z,11.11
2019-05-11T12:12:58.081Z,10.87
2019-05-11T12:15:28.224Z,10.92
2019-05-11T12:17:58.794Z,10.93
2019-05-11T12:20:28.674Z,10.83
2019-05-11T12:22:58.101Z,10.91
2019-05-11T12:25:27.932Z,10.80
2019-05-11T12:27:57.758Z,10.72
2019-05-11T12:30:28.514Z,10.69
2019-05-11T12:32:57.743Z,10.60
2019-05-11T12:35:28.404Z,10.60
2019-05-11T12:37:58.793Z,10.65
2019-05-11T12:40:28.372Z,10.78
2019-05-11T12:42:59.071Z,11.13
2019-05-11T12:45:29.547Z,11.19
2019-05-11T12:47:58.730Z,11.31
2019-05-11T12:50:28.595Z,11.56
2019-05-11T12:52:58.796Z,11.24
2019-05-11T12:55:28.597Z,10.95
2019-05-11T12:57:58.090Z,10.78
2019-05-11T13:00:31.044Z,11.00
2019-05-11T13:02:58.870Z,11.11
2019-05-11T13:05:28.527Z,11.49
2019-05-11T13:07:58.716Z,11.57
2019-05-11T13:10:28.258Z,11.85
2019-05-11T13:12:58.128Z,12.20
2019-05-11T13:15:28.200Z,12.62
2019-05-11T13:17:58.091Z,13.03
2019-05-11T13:20:28.627Z,13.08
2019-05-11T13:22:58.759Z,12.57
2019-05-11T13:25:28.236Z,12.58
2019-05-11T13:27:58.128Z,12.58
2019-05-11T13:30:27.792Z,12.74
2019-05-11T13:32:58.065Z,12.81
2019-05-11T13:35:28.592Z,12.74
2019-05-11T13:37:59.128Z,13.20
2019-05-11T13:40:27.876Z,13.79
2019-05-11T13:42:58.178Z,13.29
2019-05-11T13:45:28.217Z,13.03
2019-05-11T13:47:59.212Z,12.77
2019-05-11T13:50:29.532Z,12.60
2019-05-11T13:52:58.418Z,12.47
2019-05-11T13:55:28.457Z,12.78
2019-05-11T13:57:57.842Z,12.60
2019-05-11T14:00:28.732Z,12.51
2019-05-11T14:02:59.234Z,12.38
2019-05-11T14:05:28.533Z,12.17
2019-05-11T14:07:58.688Z,12.48
2019-05-11T14:10:28.202Z,12.40
2019-05-11T14:12:58.094Z,12.65
2019-05-11T14:15:28.014Z,12.78
2019-05-11T14:18:05.669Z,12.63
2019-05-11T14:20:28.958Z,13.29
2019-05-11T14:22:58.444Z,13.79
2019-05-11T14:25:28.079Z,14.18
2019-05-11T14:27:59.381Z,13.46
2019-05-11T14:30:28.000Z,13.82
2019-05-11T14:32:58.109Z,14.09
2019-05-11T14:35:28.070Z,14.62
2019-05-11T14:37:58.727Z,14.45
2019-05-11T14:40:28.096Z,14.45
2019-05-11T14:42:58.068Z,14.62
2019-05-11T14:45:28.889Z,15.18
2019-05-11T14:47:58.277Z,14.73
2019-05-11T14:50:28.194Z,14.11
2019-05-11T14:52:58.094Z,13.49
2019-05-11T14:55:28.896Z,13.51
2019-05-11T14:57:57.730Z,14.10
2019-05-11T15:00:28.765Z,14.20
2019-05-11T15:02:58.457Z,13.46
2019-05-11T15:05:28.315Z,13.62
2019-05-11T15:07:58.202Z,14.30
2019-05-11T15:10:27.761Z,14.12
2019-05-11T15:12:58.878Z,13.98
2019-05-11T15:15:27.965Z,14.05
2019-05-11T15:17:58.092Z,13.92
2019-05-11T15:20:28.602Z,13.37
2019-05-11T15:22:58.177Z,13.66
2019-05-11T15:25:28.843Z,13.89
2019-05-11T15:27:58.423Z,14.40
2019-05-11T15:30:28.771Z,14.96
2019-05-11T15:32:58.453Z,15.43
2019-05-11T15:35:28.438Z,15.22
2019-05-11T15:37:58.240Z,15.29
2019-05-11T15:40:27.940Z,15.27
2019-05-11T15:42:58.610Z,14.19
2019-05-11T15:45:27.827Z,13.75
2019-05-11T15:47:58.728Z,13.75
2019-05-11T15:50:32.674Z,13.54
2019-05-11T15:53:01.326Z,13.29
2019-05-11T15:55:30.009Z,13.24
2019-05-11T15:57:58.891Z,13.04
2019-05-11T16:00:29.422Z,12.95
2019-05-11T16:02:58.130Z,12.78
2019-05-11T16:05:28.520Z,13.01
2019-05-11T16:08:01.414Z,13.06
2019-05-11T16:10:27.976Z,13.23
2019-05-11T16:12:58.636Z,13.33
2019-05-11T16:15:27.727Z,13.16
2019-05-11T16:17:57.810Z,13.24
2019-05-11T16:20:28.551Z,13.09
2019-05-11T16:22:57.358Z,12.74
2019-05-11T16:25:28.062Z,13.11
2019-05-11T16:27:56.876Z,13.31
2019-05-11T16:30:25.534Z,13.30
2019-05-11T16:32:54.218Z,12.89
2019-05-11T16:35:22.889Z,12.48
2019-05-11T16:37:51.554Z,12.41
2019-05-11T16:40:21.126Z,12.34
2019-05-11T16:42:50.129Z,12.32
2019-05-11T16:45:19.452Z,12.57
2019-05-11T16:47:48.554Z,12.74
2019-05-11T16:50:18.179Z,12.69
2019-05-11T16:52:48.236Z,12.75
2019-05-11T16:55:18.264Z,12.81
2019-05-11T16:57:48.514Z,12.83
2019-05-11T17:00:17.754Z,13.10
2019-05-11T17:02:48.662Z,13.23
2019-05-11T17:05:25.813Z,13.95
2019-05-11T17:07:48.362Z,14.00
2019-05-11T17:10:17.938Z,16.08
2019-05-11T17:12:48.293Z,18.31
2019-05-11T17:15:18.607Z,19.42
2019-05-11T17:17:48.707Z,20.34
2019-05-11T17:20:19.217Z,18.87
2019-05-11T17:22:48.400Z,16.56
2019-05-11T17:25:19.273Z,18.39
2019-05-11T17:27:48.732Z,18.53
2019-05-11T17:30:19.513Z,15.91
2019-05-11T17:32:49.265Z,14.86
2019-05-11T17:35:18.715Z,15.37
2019-05-11T17:37:48.453Z,15.29
2019-05-11T17:40:19.449Z,14.42
2019-05-11T17:42:48.400Z,13.67
2019-05-11T17:45:18.946Z,14.08
2019-05-11T17:47:48.191Z,13.29
2019-05-11T17:50:19.119Z,12.74
2019-05-11T17:52:48.068Z,12.47
2019-05-11T17:55:18.389Z,13.15
2019-05-11T17:57:49.664Z,14.26
2019-05-11T18:00:20.084Z,15.00
2019-05-11T18:02:49.000Z,15.08
2019-05-11T18:05:18.271Z,15.36
2019-05-11T18:07:46.953Z,15.66
2019-05-11T18:10:17.992Z,15.81
2019-05-11T18:12:48.340Z,15.51
2019-05-11T18:15:18.594Z,14.93
2019-05-11T18:17:48.419Z,14.51
2019-05-11T18:20:21.753Z,14.77
2019-05-11T18:22:49.467Z,14.38
2019-05-11T18:25:18.649Z,14.37
2019-05-11T18:27:48.309Z,14.35
2019-05-11T18:30:18.162Z,13.92
2019-05-11T18:32:49.071Z,13.51
2019-05-11T18:35:19.452Z,12.70
2019-05-11T18:37:48.129Z,12.10
2019-05-11T18:40:20.698Z,11.84
2019-05-11T18:42:50.830Z,11.65
2019-05-11T18:45:19.622Z,11.54
2019-05-11T18:47:48.959Z,11.54
2019-05-11T18:50:29.456Z,11.36
2019-05-11T18:52:49.056Z,11.15
2019-05-11T18:55:18.944Z,11.00
2019-05-11T18:57:48.991Z,11.06
2019-05-11T19:00:19.130Z,11.07
2019-05-11T19:02:49.503Z,10.95
2019-05-11T19:05:18.333Z,10.89
2019-05-11T19:07:48.210Z,10.77
2019-05-11T19:10:17.438Z,10.68
2019-05-11T19:12:48.434Z,10.54
2019-05-11T19:15:18.832Z,10.42
2019-05-11T19:17:48.999Z,10.22
2019-05-11T19:20:18.048Z,10.26
2019-05-11T19:22:46.855Z,10.10
2019-05-11T19:25:18.229Z,10.01
2019-05-11T19:27:50.233Z,9.91
2019-05-11T19:30:18.705Z,9.83
2019-05-11T19:32:48.740Z,9.74
2019-05-11T19:35:20.879Z,9.75
2019-05-11T19:37:48.700Z,9.76
2019-05-11T19:40:17.552Z,9.77
2019-05-11T19:42:54.375Z,9.63
2019-05-11T19:45:23.906Z,9.60
2019-05-11T19:47:52.675Z,9.72
2019-05-11T19:50:21.528Z,9.56
2019-05-11T19:52:50.194Z,9.36
2019-05-11T19:55:19.241Z,9.34
2019-05-11T19:57:48.409Z,9.28
2019-05-11T20:00:18.410Z,9.25
2019-05-11T20:02:47.471Z,9.17
2019-05-11T20:05:18.488Z,9.07
2019-05-11T20:07:48.616Z,8.87
2019-05-11T20:10:19.369Z,8.90
2019-05-11T20:12:48.569Z,8.79
2019-05-11T20:15:18.757Z,8.76
2019-05-11T20:17:48.734Z,8.62
2019-05-11T20:20:18.645Z,8.72
2019-05-11T20:22:48.531Z,8.65
2019-05-11T20:25:19.336Z,8.53
2019-05-11T20:27:48.858Z,8.63
2019-05-11T20:30:19.540Z,8.56
2019-05-11T20:32:49.945Z,8.56
2019-05-11T20:35:18.708Z,8.38
2019-05-11T20:37:47.416Z,8.42
2019-05-11T20:40:18.342Z,8.37
2019-05-11T20:42:48.479Z,8.41
2019-05-11T20:45:18.532Z,8.37
2019-05-11T20:47:48.727Z,8.32
2019-05-11T20:50:18.531Z,8.25
2019-05-11T20:52:48.090Z,8.26
2019-05-11T20:55:18.155Z,8.23
2019-05-11T20:57:48.234Z,8.19
2019-05-11T21:00:19.755Z,8.10
2019-05-11T21:02:49.020Z,7.90
2019-05-11T21:05:18.386Z,7.77
2019-05-11T21:07:49.586Z,7.80
2019-05-11T21:10:18.330Z,7.86
2019-05-11T21:12:46.995Z,7.96
2019-05-11T21:15:16.435Z,7.85
2019-05-11T21:17:45.133Z,7.81
2019-05-11T21:20:14.053Z,7.75
2019-05-11T21:22:42.716Z,7.71
2019-05-11T21:25:11.990Z,7.58
2019-05-11T21:27:40.655Z,7.47
2019-05-11T21:30:10.213Z,7.44
2019-05-11T21:32:38.958Z,7.35
2019-05-11T21:35:08.828Z,7.33
2019-05-11T21:37:39.036Z,7.44
2019-05-11T21:40:09.219Z,7.31
2019-05-11T21:42:39.025Z,7.30
2019-05-11T21:45:09.087Z,7.23
2019-05-11T21:47:38.864Z,7.17
2019-05-11T21:50:08.581Z,7.29
2019-05-11T21:52:38.381Z,7.31
2019-05-11T21:55:09.638Z,7.25
2019-05-11T21:57:38.722Z,7.39
2019-05-11T22:00:09.149Z,7.29
2019-05-11T22:02:38.690Z,7.27
2019-05-11T22:05:08.707Z,7.24
2019-05-11T22:07:38.788Z,7.13
2019-05-11T22:10:08.819Z,7.14
2019-05-11T22:12:39.134Z,7.05
2019-05-11T22:15:09.755Z,7.06
2019-05-11T22:17:39.314Z,7.04
2019-05-11T22:20:10.034Z,6.91
2019-05-11T22:22:39.410Z,6.94
2019-05-11T22:25:08.711Z,6.95
2019-05-11T22:27:38.748Z,6.88
2019-05-11T22:30:08.769Z,6.80
2019-05-11T22:32:38.317Z,6.74
2019-05-11T22:35:08.326Z,6.69
2019-05-11T22:37:38.739Z,6.69
2019-05-11T22:40:09.185Z,6.65
2019-05-11T22:42:39.702Z,6.61
2019-05-11T22:45:09.003Z,6.67
2019-05-11T22:47:39.248Z,6.63
2019-05-11T22:50:08.548Z,6.44
2019-05-11T22:52:40.108Z,6.44
2019-05-11T22:55:12.118Z,6.43
2019-05-11T22:57:39.352Z,6.35
2019-05-11T23:00:08.528Z,6.41
2019-05-11T23:02:37.988Z,6.40
2019-05-11T23:05:08.493Z,6.24
2019-05-11T23:07:41.067Z,6.11
2019-05-11T23:10:08.829Z,6.01
2019-05-11T23:12:38.333Z,5.91
2019-05-11T23:15:18.491Z,5.66
2019-05-11T23:17:47.159Z,5.69
2019-05-11T23:20:16.288Z,5.67
2019-05-11T23:22:56.938Z,5.68
2019-05-11T23:25:18.730Z,5.71
2019-05-11T23:27:48.538Z,5.77
2019-05-11T23:30:20.095Z,5.83
2019-05-11T23:32:49.323Z,5.68
2019-05-11T23:35:19.070Z,5.51
2019-05-11T23:37:49.519Z,5.53
2019-05-11T23:40:19.390Z,5.53
2019-05-11T23:42:49.050Z,5.57
2019-05-11T23:45:19.175Z,5.53
2019-05-11T23:47:48.791Z,5.66
2019-05-11T23:50:19.049Z,5.74
2019-05-11T23:52:48.789Z,5.95
2019-05-11T23:55:19.253Z,6.01
2019-05-11T23:57:48.862Z,5.98
